24h
KLIENDITUGI:
Saartelennuliinid: +372 58856336 (24/7)
Estairi piletikassa lennujaamas:
+372 6058887; +372 55603687

06.09.2018 hommikune Transaviabaltika lend KTB670 Tallinn - Kärdla ja KTB671 Kärdla – Tallinn väljalend jääb ära. Lennu ära jäämise põhjustab ilmastikuolu Kärdla lennuväljal. Reisijatele võimaldatakse tasuta lennupileti ümberbroneerimine reisija soovi kohasele mõnele teisele Tallinn-Kärdla või Kärdla-Tallinn lennule. Reisijatele kes ei soovi lennupileti ümberbroneerimist teisele lennule tagastatakse piletiraha. Oma soovist tuleb teada anda e-mailile [email protected] Lisainformatsioon telefonil 58856336.

EEKA Kärdla lennuväli FCEO32 EETN 060300 TAF EEKA 060300Z 0604/0610 05010KT 9999 BKN005 BKN020 
TEMPO 0604/0606 0600 BCFG BKN002 BECMG 0606/0608 SCT012 SCT020 TEMPO 0608/0610 SCT012 SCT020CB= 
METAR EEKA 060250Z 05005KT 9000 BKN006 OVC017 17/16 Q1019=
Kuupäev: 
06/09/2018